GLO1378 SBRJ-SAEZ
Flight info
| Callsign | GLO1378 |
|---|---|
| Flight time | N/A |
| Altitude | 38000 |
| Route | VAMIX DCT VUDAV UN857 NELOX UZ53 UMRUD UN741 PAPIX |
| Aircraft | B738/M-SDE2E3FGHIRWXY/LB1 |
Departure
| Time | 2026-04-28 18:33 |
|---|---|
| Airport | Santos Dumont Airport (SBRJ) |
Arrival
| Time | N/A |
|---|---|
| Airport | Ezeiza International Airport - Ministro Pistarini (SAEZ) |
| Time | Latitude | Longitude | Altitude | Speed | Heading |
|---|---|---|---|---|---|
| 2026-04-28 18:07 | -22.91092 | -43.16594 | 27 ft | 0 kts | 266° |
| 2026-04-28 18:22 | -22.91092 | -43.16592 | 27 ft | 2 kts | 266° |
| 2026-04-28 18:22 | -22.91091 | -43.16575 | 26 ft | 2 kts | 266° |
| 2026-04-28 18:22 | -22.91090 | -43.16559 | 26 ft | 2 kts | 280° |
| 2026-04-28 18:22 | -22.91096 | -43.16544 | 25 ft | 2 kts | 310° |
| 2026-04-28 18:23 | -22.91108 | -43.16534 | 25 ft | 1 kts | 338° |
| 2026-04-28 18:23 | -22.91114 | -43.16532 | 25 ft | 1 kts | 351° |
| 2026-04-28 18:23 | -22.91118 | -43.16531 | 25 ft | 0 kts | 347° |
| 2026-04-28 18:28 | -22.91102 | -43.16535 | 25 ft | 5 kts | 346° |
| 2026-04-28 18:28 | -22.91060 | -43.16546 | 25 ft | 6 kts | 351° |
| 2026-04-28 18:28 | -22.91007 | -43.16550 | 26 ft | 8 kts | 357° |
| 2026-04-28 18:29 | -22.90945 | -43.16554 | 26 ft | 9 kts | 356° |
| 2026-04-28 18:29 | -22.90873 | -43.16559 | 26 ft | 10 kts | 357° |
| 2026-04-28 18:29 | -22.90794 | -43.16552 | 25 ft | 11 kts | 2° |
| 2026-04-28 18:29 | -22.90708 | -43.16555 | 26 ft | 12 kts | 356° |
| 2026-04-28 18:30 | -22.90616 | -43.16560 | 25 ft | 13 kts | 358° |
| 2026-04-28 18:30 | -22.90583 | -43.16561 | 26 ft | 14 kts | 357° |
| 2026-04-28 18:30 | -22.90492 | -43.16525 | 25 ft | 9 kts | 77° |
| 2026-04-28 18:30 | -22.90483 | -43.16449 | 25 ft | 10 kts | 86° |
| 2026-04-28 18:31 | -22.90469 | -43.16363 | 22 ft | 6 kts | 68° |
| 2026-04-28 18:31 | -22.90482 | -43.16330 | 21 ft | 6 kts | 155° |
| 2026-04-28 18:31 | -22.90497 | -43.16327 | 21 ft | 0 kts | 175° |
| 2026-04-28 18:32 | -22.90528 | -43.16325 | 21 ft | 26 kts | 176° |
| 2026-04-28 18:32 | -22.90982 | -43.16294 | 21 ft | 99 kts | 176° |
| 2026-04-28 18:32 | -22.91883 | -43.16237 | 43 ft | 152 kts | 176° |
| 2026-04-28 18:32 | -22.92934 | -43.16040 | 551 ft | 152 kts | 159° |
| 2026-04-28 18:33 | -22.93834 | -43.15444 | 980 ft | 158 kts | 136° |
| 2026-04-28 18:33 | -22.94590 | -43.14510 | 1281 ft | 176 kts | 127° |
| 2026-04-28 18:33 | -22.95299 | -43.13412 | 1839 ft | 173 kts | 123° |
| 2026-04-28 18:33 | -22.96116 | -43.12390 | 2204 ft | 190 kts | 136° |
| 2026-04-28 18:34 | -22.97167 | -43.11435 | 2581 ft | 205 kts | 140° |
| 2026-04-28 18:34 | -22.98384 | -43.10508 | 2873 ft | 225 kts | 153° |
| 2026-04-28 18:34 | -22.99962 | -43.10111 | 3260 ft | 239 kts | 183° |
| 2026-04-28 18:34 | -23.01583 | -43.10619 | 3758 ft | 246 kts | 211° |
| 2026-04-28 18:35 | -23.02957 | -43.11704 | 4354 ft | 247 kts | 220° |
| 2026-04-28 18:35 | -23.04300 | -43.12923 | 4518 ft | 260 kts | 221° |
| 2026-04-28 18:35 | -23.05691 | -43.14187 | 4895 ft | 262 kts | 220° |
| 2026-04-28 18:35 | -23.07117 | -43.15464 | 5264 ft | 264 kts | 220° |
| 2026-04-28 18:36 | -23.08541 | -43.16708 | 5645 ft | 266 kts | 220° |
| 2026-04-28 18:36 | -23.09995 | -43.17965 | 6012 ft | 268 kts | 220° |
| 2026-04-28 18:36 | -23.11459 | -43.19232 | 6366 ft | 269 kts | 220° |
| 2026-04-28 18:36 | -23.12928 | -43.20507 | 6721 ft | 271 kts | 220° |
| 2026-04-28 18:37 | -23.14408 | -43.21795 | 7090 ft | 271 kts | 220° |
| 2026-04-28 18:37 | -23.15883 | -43.23079 | 7439 ft | 273 kts | 220° |
| 2026-04-28 18:37 | -23.17355 | -43.24361 | 7784 ft | 274 kts | 221° |
| 2026-04-28 18:37 | -23.18849 | -43.25664 | 8102 ft | 275 kts | 221° |
| 2026-04-28 18:38 | -23.20348 | -43.26970 | 8451 ft | 275 kts | 221° |
| 2026-04-28 18:38 | -23.21864 | -43.28293 | 8757 ft | 278 kts | 221° |
| 2026-04-28 18:38 | -23.23362 | -43.29599 | 9018 ft | 278 kts | 221° |
| 2026-04-28 18:38 | -23.24873 | -43.30919 | 9398 ft | 278 kts | 221° |
| 2026-04-28 18:39 | -23.26387 | -43.32240 | 9742 ft | 279 kts | 221° |
| 2026-04-28 18:39 | -23.27914 | -43.33569 | 10039 ft | 280 kts | 221° |
| 2026-04-28 18:39 | -23.29439 | -43.34896 | 10311 ft | 281 kts | 221° |
| 2026-04-28 18:39 | -23.30959 | -43.36223 | 10572 ft | 283 kts | 221° |
| 2026-04-28 18:40 | -23.32505 | -43.37573 | 10846 ft | 284 kts | 221° |
| 2026-04-28 18:40 | -23.34038 | -43.38911 | 11108 ft | 285 kts | 221° |
| 2026-04-28 18:40 | -23.35603 | -43.40258 | 11369 ft | 286 kts | 221° |
| 2026-04-28 18:40 | -23.37185 | -43.41609 | 11605 ft | 288 kts | 220° |
| 2026-04-28 18:41 | -23.38791 | -43.42983 | 11722 ft | 305 kts | 221° |
| 2026-04-28 18:41 | -23.40501 | -43.44449 | 12071 ft | 318 kts | 220° |
| 2026-04-28 18:41 | -23.42270 | -43.45966 | 12365 ft | 333 kts | 221° |
| 2026-04-28 18:41 | -23.44134 | -43.47565 | 12656 ft | 348 kts | 220° |
| 2026-04-28 18:42 | -23.46066 | -43.49223 | 12938 ft | 362 kts | 220° |
| 2026-04-28 18:42 | -23.48093 | -43.50961 | 13231 ft | 376 kts | 220° |
| 2026-04-28 18:42 | -23.50172 | -43.52743 | 13691 ft | 383 kts | 220° |
| 2026-04-28 18:42 | -23.52288 | -43.54556 | 14244 ft | 388 kts | 220° |
| 2026-04-28 18:43 | -23.54420 | -43.56385 | 14820 ft | 392 kts | 221° |
| 2026-04-28 18:43 | -23.56553 | -43.58215 | 15385 ft | 396 kts | 221° |
| 2026-04-28 18:43 | -23.58720 | -43.60077 | 15965 ft | 399 kts | 221° |
| 2026-04-28 18:43 | -23.60924 | -43.61972 | 16508 ft | 403 kts | 221° |
| 2026-04-28 18:44 | -23.63092 | -43.63860 | 17044 ft | 405 kts | 223° |
| 2026-04-28 18:44 | -23.67247 | -43.68053 | 18147 ft | 408 kts | 229° |
| 2026-04-28 18:44 | -23.69258 | -43.70255 | 18727 ft | 409 kts | 230° |
| 2026-04-28 18:45 | -23.71258 | -43.72468 | 19290 ft | 411 kts | 230° |
| 2026-04-28 18:45 | -23.73271 | -43.74683 | 19833 ft | 413 kts | 229° |
| 2026-04-28 18:45 | -23.75300 | -43.76895 | 20414 ft | 414 kts | 230° |
| 2026-04-28 18:45 | -23.77354 | -43.79124 | 20922 ft | 417 kts | 229° |
| 2026-04-28 18:46 | -23.79415 | -43.81351 | 21438 ft | 419 kts | 230° |
| 2026-04-28 18:46 | -23.81490 | -43.83589 | 21946 ft | 421 kts | 230° |
| 2026-04-28 18:46 | -23.83568 | -43.85829 | 22413 ft | 423 kts | 230° |
| 2026-04-28 18:46 | -23.85668 | -43.88091 | 22880 ft | 426 kts | 230° |
| 2026-04-28 18:47 | -23.87780 | -43.90368 | 23292 ft | 429 kts | 230° |
| 2026-04-28 18:47 | -23.89905 | -43.92661 | 23709 ft | 432 kts | 230° |
| 2026-04-28 18:47 | -23.92056 | -43.94981 | 24134 ft | 435 kts | 230° |
| 2026-04-28 18:47 | -23.94193 | -43.97287 | 24595 ft | 437 kts | 230° |
| 2026-04-28 18:48 | -23.96381 | -43.99649 | 24973 ft | 441 kts | 230° |
| 2026-04-28 18:48 | -23.98542 | -44.01984 | 25402 ft | 443 kts | 230° |
| 2026-04-28 18:48 | -24.00737 | -44.04357 | 25785 ft | 446 kts | 230° |
| 2026-04-28 18:48 | -24.02970 | -44.06773 | 26001 ft | 452 kts | 230° |
| 2026-04-28 18:49 | -24.05203 | -44.09189 | 26007 ft | 449 kts | 230° |
| 2026-04-28 18:49 | -24.05926 | -44.09971 | 26008 ft | 447 kts | 230° |
| 2026-04-28 18:49 | -24.09616 | -44.13956 | 26010 ft | 447 kts | 230° |
| 2026-04-28 18:49 | -24.11830 | -44.16354 | 26007 ft | 447 kts | 230° |
| 2026-04-28 18:50 | -24.14051 | -44.18760 | 26010 ft | 447 kts | 230° |
| 2026-04-28 18:50 | -24.16270 | -44.21168 | 26009 ft | 448 kts | 230° |
| 2026-04-28 18:50 | -24.18479 | -44.23564 | 26006 ft | 444 kts | 230° |